Time;durP1;ratioP1;P1;durP2;ratioP2;P2;SDS_P1;SDS_P2;PMS_P1;PMS_P2;Temp;Humidity;BMP_temperature;BMP_pressure;BME280_temperature;BME280_humidity;BME280_pressure;Samples;Min_cycle;Max_cycle;Signal;HPM_P1;HPM_P2
2023/01/27 00:02:19;;;;;;;15.75;6.28;;;4.40;99.90;;;;;;4752894;30;20052;-74
2023/01/27 00:04:44;;;;;;;20.55;6.55;;;4.30;99.90;;;;;;4752604;30;20139;-74
2023/01/27 00:07:10;;;;;;;17.75;6.43;;;4.40;99.90;;;;;;4752862;30;20178;-74
2023/01/27 00:09:36;;;;;;;21.35;6.95;;;4.40;99.90;;;;;;4752931;30;20398;-74
2023/01/27 00:14:45;;;;;;;27.60;6.20;;;4.40;99.90;;;;;;4752747;30;20083;-74
2023/01/27 00:17:11;;;;;;;21.30;6.68;;;4.40;99.90;;;;;;4752384;30;20523;-74
2023/01/27 00:19:36;;;;;;;19.02;5.38;;;4.40;99.90;;;;;;4752440;30;20048;-74
2023/01/27 00:24:46;;;;;;;14.68;4.45;;;4.50;99.90;;;;;;4751862;30;20488;-74
2023/01/27 00:27:12;;;;;;;24.83;6.03;;;4.50;99.90;;;;;;4751698;30;20075;-74
2023/01/27 00:29:39;;;;;;;29.55;5.13;;;4.50;99.90;;;;;;4752232;30;20152;-74
2023/01/27 00:34:49;;;;;;;21.40;5.43;;;4.40;99.90;;;;;;4753411;30;20554;-74
2023/01/27 00:37:14;;;;;;;19.52;4.75;;;4.40;99.90;;;;;;4753378;30;20048;-74
2023/01/27 00:39:40;;;;;;;23.27;5.07;;;4.50;99.90;;;;;;4752010;30;20134;-74
2023/01/27 00:42:06;;;;;;;12.20;4.18;;;4.40;99.90;;;;;;4752303;30;20099;-74
2023/01/27 00:44:31;;;;;;;20.60;5.25;;;4.50;99.90;;;;;;4752088;30;20048;-74
2023/01/27 00:46:57;;;;;;;12.23;3.97;;;4.50;99.90;;;;;;4752279;30;20044;-74
2023/01/27 00:49:23;;;;;;;13.98;4.18;;;4.40;99.90;;;;;;4752257;30;20125;-74
2023/01/27 00:51:49;;;;;;;18.58;4.03;;;4.40;99.90;;;;;;4752974;30;20060;-74
2023/01/27 00:54:15;;;;;;;19.65;3.75;;;4.50;99.90;;;;;;4752084;30;20508;-74
2023/01/27 00:56:41;;;;;;;18.10;4.97;;;4.40;99.90;;;;;;4752117;30;20457;-74
2023/01/27 00:59:06;;;;;;;23.95;5.05;;;4.40;99.90;;;;;;4751839;30;20516;-74
2023/01/27 01:01:35;;;;;;;18.70;4.35;;;4.40;99.90;;;;;;4752969;30;20052;-74
2023/01/27 01:04:01;;;;;;;17.95;5.00;;;4.40;99.90;;;;;;4753073;30;20055;-74
2023/01/27 01:06:27;;;;;;;17.52;4.00;;;4.40;99.90;;;;;;4751903;30;20051;-74
2023/01/27 01:08:55;;;;;;;16.55;3.78;;;4.40;99.90;;;;;;4751979;30;20515;-74
2023/01/27 01:11:21;;;;;;;17.88;3.75;;;4.40;99.90;;;;;;4751605;30;20135;-74
2023/01/27 01:13:47;;;;;;;17.52;3.58;;;4.40;99.90;;;;;;4751731;30;20052;-74
2023/01/27 01:16:22;;;;;;;20.08;4.03;;;4.40;99.90;;;;;;4751930;30;20420;-74
2023/01/27 01:18:50;;;;;;;17.42;4.03;;;4.50;99.90;;;;;;4751711;30;20055;-74
2023/01/27 01:21:19;;;;;;;17.58;5.00;;;4.50;99.90;;;;;;4751596;30;20052;-74
2023/01/27 01:23:45;;;;;;;21.48;4.45;;;4.40;99.90;;;;;;4751746;30;20102;-74
2023/01/27 01:26:20;;;;;;;15.77;4.18;;;4.40;99.90;;;;;;4751573;30;20571;-74
2023/01/27 01:28:49;;;;;;;13.20;2.97;;;4.50;99.90;;;;;;4751479;30;20126;-74
2023/01/27 01:31:18;;;;;;;13.73;3.33;;;4.50;99.90;;;;;;4751540;30;20062;-74
2023/01/27 01:33:45;;;;;;;23.50;4.05;;;4.50;99.90;;;;;;4751515;30;20406;-74
2023/01/27 01:36:13;;;;;;;15.32;3.25;;;4.40;99.90;;;;;;4752809;30;20065;-74
2023/01/27 01:38:43;;;;;;;16.10;3.72;;;4.40;99.90;;;;;;4751555;30;20131;-74
2023/01/27 01:41:13;;;;;;;15.52;3.05;;;4.40;99.90;;;;;;4751611;30;20049;-74
2023/01/27 01:43:39;;;;;;;18.17;3.58;;;4.40;99.90;;;;;;4751763;30;20430;-74
2023/01/27 01:46:06;;;;;;;12.18;2.47;;;4.40;99.90;;;;;;4751281;30;20131;-74
2023/01/27 01:48:52;;;;;;;15.30;2.80;;;4.40;99.90;;;;;;4751510;30;20079;-74
2023/01/27 01:51:25;;;;;;;13.13;2.75;;;4.40;99.90;;;;;;4751476;30;20052;-74
2023/01/27 01:54:13;;;;;;;18.67;4.05;;;4.30;99.90;;;;;;4751524;30;20147;-74
2023/01/27 01:56:44;;;;;;;14.30;3.55;;;4.30;99.90;;;;;;4751278;30;20044;-74
2023/01/27 01:59:27;;;;;;;8.30;3.10;;;4.40;99.90;;;;;;4751592;30;20398;-74
2023/01/27 02:01:56;;;;;;;9.05;2.47;;;4.40;99.90;;;;;;4751212;30;20047;-74
2023/01/27 02:04:29;;;;;;;12.23;2.55;;;4.40;99.90;;;;;;4751625;30;20063;-74
2023/01/27 02:07:07;;;;;;;12.18;2.22;;;4.40;99.90;;;;;;4751173;30;20451;-74
2023/01/27 02:09:33;;;;;;;12.25;4.32;;;4.40;99.90;;;;;;4751254;30;20060;-74
2023/01/27 02:11:59;;;;;;;17.02;2.63;;;4.40;99.90;;;;;;4751258;30;20413;-74
2023/01/27 02:14:25;;;;;;;9.35;1.88;;;4.40;99.90;;;;;;4754759;30;20175;-74
2023/01/27 02:16:51;;;;;;;8.75;2.83;;;4.40;99.90;;;;;;4755815;30;20076;-74
2023/01/27 02:19:38;;;;;;;12.05;2.25;;;4.40;99.90;;;;;;4754501;30;20197;-74
2023/01/27 02:22:09;;;;;;;6.43;2.13;;;4.40;99.90;;;;;;4755576;30;20516;-74
2023/01/27 02:24:43;;;;;;;8.60;1.80;;;4.40;99.90;;;;;;4754509;30;20498;-74
2023/01/27 02:27:09;;;;;;;6.90;2.47;;;4.40;99.90;;;;;;4754036;30;20071;-74
2023/01/27 02:29:34;;;;;;;10.27;2.70;;;4.40;99.90;;;;;;4739893;30;20131;-74
2023/01/27 02:32:00;;;;;;;7.30;3.40;;;4.40;99.90;;;;;;4739446;30;20094;-74
2023/01/27 02:34:32;;;;;;;9.73;2.60;;;4.30;99.90;;;;;;4739754;30;20080;-74
2023/01/27 02:37:04;;;;;;;6.68;3.55;;;4.40;99.90;;;;;;4739730;30;20055;-74
2023/01/27 02:39:41;;;;;;;7.55;2.53;;;4.40;99.90;;;;;;4755414;30;20052;-74
2023/01/27 02:42:09;;;;;;;8.40;2.55;;;4.40;99.90;;;;;;4739448;30;20052;-74
2023/01/27 02:44:35;;;;;;;9.68;2.30;;;4.40;99.90;;;;;;4739405;30;20458;-74
2023/01/27 02:47:00;;;;;;;8.90;2.38;;;4.40;99.90;;;;;;4739148;30;20084;-74
2023/01/27 02:49:26;;;;;;;14.55;2.63;;;4.40;99.90;;;;;;4755162;30;20052;-74
2023/01/27 02:51:51;;;;;;;8.90;2.22;;;4.40;99.90;;;;;;4739204;30;20064;-74
2023/01/27 02:54:17;;;;;;;6.78;2.17;;;4.30;99.90;;;;;;4739205;30;20052;-74
2023/01/27 02:56:43;;;;;;;7.57;1.65;;;4.40;99.90;;;;;;4755097;30;20127;-74
2023/01/27 02:59:08;;;;;;;7.95;1.92;;;4.40;99.90;;;;;;4754832;30;20131;-74
2023/01/27 03:01:34;;;;;;;10.18;3.55;;;4.40;99.90;;;;;;4739218;30;20485;-74
2023/01/27 03:04:00;;;;;;;6.65;1.80;;;4.40;99.90;;;;;;4739288;30;20056;-74
2023/01/27 03:06:26;;;;;;;5.88;2.00;;;4.30;99.90;;;;;;4739057;30;20057;-74
2023/01/27 03:08:52;;;;;;;8.98;2.28;;;4.30;99.90;;;;;;4739007;30;20143;-74
2023/01/27 03:14:05;;;;;;;9.15;3.25;;;4.30;99.90;;;;;;4738937;30;20056;-74
2023/01/27 03:19:15;;;;;;;8.38;2.20;;;4.20;99.90;;;;;;4738989;30;20071;-74
2023/01/27 03:21:41;;;;;;;8.32;1.98;;;4.20;99.90;;;;;;4754616;30;20051;-74
2023/01/27 03:24:10;;;;;;;4.70;1.67;;;4.20;99.90;;;;;;4754617;30;20048;-74
2023/01/27 03:26:37;;;;;;;9.05;3.00;;;4.20;99.90;;;;;;4738570;30;20109;-74
2023/01/27 03:32:04;;;;;;;12.20;2.92;;;4.20;99.90;;;;;;4720087;30;20111;-74
2023/01/27 03:34:30;;;;;;;8.68;2.53;;;4.20;99.90;;;;;;4745648;30;20056;-74
2023/01/27 03:47:52;;;;;;;7.93;3.42;;;4.00;99.90;;;;;;4754242;30;20063;-74
2023/01/27 03:50:36;;;;;;;8.73;3.45;;;4.00;99.90;;;;;;4752965;30;20052;-74
2023/01/27 03:53:02;;;;;;;;;;;3.90;99.90;;;;;;4753541;30;20083;-74
2023/01/27 03:55:32;;;;;;;13.00;3.65;;;4.00;99.90;;;;;;4753063;30;19949;-74
2023/01/27 03:58:13;;;;;;;7.45;2.80;;;3.90;99.90;;;;;;4752807;30;20485;-74
2023/01/27 04:00:39;;;;;;;9.35;4.05;;;4.00;99.90;;;;;;4753028;30;20402;-74
2023/01/27 04:08:33;;;;;;;12.25;4.00;;;3.90;99.90;;;;;;4752633;30;20102;-74
2023/01/27 04:13:47;;;;;;;12.60;5.57;;;4.00;99.90;;;;;;4752602;30;20060;-74
2023/01/27 04:16:16;;;;;;;15.23;6.25;;;4.00;99.90;;;;;;4752423;30;20055;-74
2023/01/27 04:18:42;;;;;;;13.15;5.70;;;3.90;99.90;;;;;;4752662;30;20068;-74
2023/01/27 04:21:08;;;;;;;11.77;5.03;;;4.00;99.90;;;;;;4752377;30;20050;-74
2023/01/27 04:23:33;;;;;;;9.55;4.65;;;3.90;99.90;;;;;;4752436;30;20052;-74
2023/01/27 04:25:59;;;;;;;10.75;4.25;;;3.90;99.90;;;;;;4752422;30;20087;-74
2023/01/27 04:28:26;;;;;;;8.38;4.13;;;3.80;99.90;;;;;;4752066;30;20098;-74
2023/01/27 04:30:52;;;;;;;5.88;3.55;;;3.90;99.90;;;;;;4752206;30;20059;-74
2023/01/27 04:33:18;;;;;;;8.80;4.00;;;3.90;99.90;;;;;;4753164;30;20517;-74
2023/01/27 04:35:44;;;;;;;6.45;3.78;;;3.90;99.90;;;;;;4753107;30;20090;-74
2023/01/27 04:38:11;;;;;;;10.02;3.92;;;3.90;99.90;;;;;;4752212;30;20068;-74
2023/01/27 04:40:36;;;;;;;9.20;3.78;;;3.90;99.90;;;;;;4752204;30;20114;-74
2023/01/27 04:43:02;;;;;;;15.95;4.80;;;3.90;99.90;;;;;;4751932;30;20052;-74
2023/01/27 04:45:27;;;;;;;9.15;3.40;;;3.90;99.90;;;;;;4751900;30;20044;-74
2023/01/27 04:47:53;;;;;;;9.93;4.05;;;3.90;99.90;;;;;;4752013;30;20058;-74
2023/01/27 04:50:28;;;;;;;12.85;3.97;;;3.80;99.90;;;;;;4752233;30;20112;-74
2023/01/27 04:52:53;;;;;;;7.95;3.80;;;3.90;99.90;;;;;;4753113;30;20048;-74
2023/01/27 04:55:19;;;;;;;11.15;3.65;;;3.80;99.90;;;;;;4752185;30;20101;-74
2023/01/27 04:57:47;;;;;;;10.45;3.08;;;3.80;99.90;;;;;;4751735;30;20063;-74
2023/01/27 05:00:14;;;;;;;9.07;2.72;;;3.80;99.90;;;;;;4751949;30;20101;-74
2023/01/27 05:02:39;;;;;;;8.38;2.97;;;3.90;99.90;;;;;;4752064;30;20164;-74
2023/01/27 05:05:05;;;;;;;10.07;3.25;;;3.80;99.90;;;;;;4751830;30;20131;-74
2023/01/27 05:07:31;;;;;;;4.70;2.80;;;3.80;99.90;;;;;;4751842;30;20131;-74
2023/01/27 05:09:57;;;;;;;6.05;2.15;;;3.80;99.90;;;;;;4752065;30;20131;-74
2023/01/27 05:12:23;;;;;;;6.53;1.83;;;3.80;99.90;;;;;;4751563;30;20094;-74
2023/01/27 05:14:49;;;;;;;5.65;1.63;;;3.80;99.90;;;;;;4751630;30;20052;-74
2023/01/27 05:17:14;;;;;;;6.15;1.73;;;3.80;99.90;;;;;;4752759;30;20044;-74
2023/01/27 05:19:40;;;;;;;8.77;1.80;;;3.80;99.90;;;;;;4751744;30;20091;-74
2023/01/27 05:22:05;;;;;;;4.75;1.25;;;3.90;99.90;;;;;;4751937;30;20097;-74
2023/01/27 05:24:31;;;;;;;7.00;1.60;;;3.80;99.90;;;;;;4751544;30;20394;-74
2023/01/27 05:26:57;;;;;;;8.18;1.50;;;3.90;99.90;;;;;;4751290;30;20520;-74
2023/01/27 05:29:22;;;;;;;8.23;1.70;;;3.90;99.90;;;;;;4737111;30;20060;-74
2023/01/27 05:31:51;;;;;;;9.15;1.67;;;3.90;99.90;;;;;;4736724;30;20056;-74
2023/01/27 05:34:16;;;;;;;5.43;1.42;;;3.90;99.90;;;;;;4737091;30;20109;-74
2023/01/27 05:36:42;;;;;;;6.18;1.20;;;3.90;99.90;;;;;;4737091;30;20052;-74
2023/01/27 05:39:10;;;;;;;5.32;1.52;;;3.90;99.90;;;;;;4736854;30;20056;-74
2023/01/27 05:41:36;;;;;;;10.77;1.60;;;3.90;99.90;;;;;;4736946;30;20044;-74
2023/01/27 05:44:02;;;;;;;8.27;1.58;;;3.90;99.90;;;;;;4737039;30;20386;-74
2023/01/27 05:46:30;;;;;;;4.32;1.48;;;3.90;99.90;;;;;;4736862;30;20060;-74
2023/01/27 05:49:00;;;;;;;4.97;1.45;;;3.80;99.90;;;;;;4739703;30;20052;-74
2023/01/27 05:51:30;;;;;;;4.72;1.50;;;3.90;99.90;;;;;;4740326;30;20052;-74
2023/01/27 05:53:55;;;;;;;4.68;1.90;;;3.90;99.90;;;;;;4740012;30;20056;-74
2023/01/27 05:56:21;;;;;;;3.67;1.55;;;3.90;99.90;;;;;;4740261;30;20052;-74
2023/01/27 05:58:47;;;;;;;5.85;1.52;;;3.80;99.90;;;;;;4740043;30;20056;-74
2023/01/27 06:01:16;;;;;;;5.88;2.13;;;3.80;99.90;;;;;;4740069;30;20052;-74
2023/01/27 06:03:43;;;;;;;4.72;1.80;;;3.80;99.90;;;;;;4740149;30;20109;-74
2023/01/27 06:06:10;;;;;;;4.82;1.75;;;3.80;99.90;;;;;;4739833;30;20459;-74
2023/01/27 06:08:36;;;;;;;7.28;1.58;;;3.80;99.90;;;;;;4739828;30;20048;-74
2023/01/27 06:11:02;;;;;;;6.13;1.70;;;3.80;99.90;;;;;;4740045;30;20135;-74
2023/01/27 06:13:28;;;;;;;3.50;1.50;;;3.90;99.90;;;;;;4740031;30;20044;-74
2023/01/27 06:15:57;;;;;;;4.80;2.15;;;3.80;99.90;;;;;;4740067;30;20048;-74
2023/01/27 06:18:23;;;;;;;7.88;1.92;;;3.80;99.90;;;;;;4739969;30;20088;-74
2023/01/27 06:20:49;;;;;;;4.93;1.67;;;3.80;99.90;;;;;;4740017;30;20480;-74
2023/01/27 06:23:15;;;;;;;11.85;2.08;;;3.80;99.90;;;;;;4739600;30;20055;-74
2023/01/27 06:25:45;;;;;;;9.68;2.40;;;3.80;99.90;;;;;;4739855;30;20048;-74
2023/01/27 06:28:13;;;;;;;5.60;1.67;;;3.80;99.90;;;;;;4746749;30;20417;-74
2023/01/27 06:30:39;;;;;;;7.95;1.60;;;3.80;99.90;;;;;;4754373;30;20056;-74
2023/01/27 06:33:06;;;;;;;10.40;2.38;;;3.80;99.90;;;;;;4754577;30;20052;-74
2023/01/27 06:35:32;;;;;;;5.95;2.40;;;3.80;99.90;;;;;;4754313;30;20060;-74
2023/01/27 06:38:00;;;;;;;7.70;2.08;;;3.80;99.90;;;;;;4755462;30;20052;-74
2023/01/27 06:40:27;;;;;;;4.18;1.40;;;3.80;99.90;;;;;;4754389;30;20052;-74
2023/01/27 06:42:53;;;;;;;8.75;1.65;;;3.80;99.90;;;;;;4754134;30;20062;-74
2023/01/27 06:45:21;;;;;;;8.45;2.17;;;3.80;99.90;;;;;;4754152;30;20060;-74
2023/01/27 06:47:58;;;;;;;6.82;2.33;;;3.80;99.90;;;;;;4754146;30;20105;-74
2023/01/27 06:50:27;;;;;;;5.35;2.55;;;3.80;99.90;;;;;;4754161;30;20606;-75
2023/01/27 06:53:00;;;;;;;5.68;2.20;;;3.80;99.90;;;;;;4753785;30;20067;-74
2023/01/27 06:55:28;;;;;;;8.32;2.30;;;3.80;99.90;;;;;;4755134;30;20378;-74
2023/01/27 06:57:54;;;;;;;8.80;1.90;;;3.80;99.90;;;;;;4755028;30;20075;-74
2023/01/27 07:00:20;;;;;;;9.65;1.70;;;3.80;99.90;;;;;;4754833;30;20405;-74
2023/01/27 07:02:46;;;;;;;10.90;2.90;;;3.70;99.90;;;;;;4753710;30;20048;-74
2023/01/27 07:05:12;;;;;;;5.10;2.05;;;3.70;99.90;;;;;;4753620;30;20109;-74
2023/01/27 07:07:38;;;;;;;6.18;1.50;;;3.80;99.90;;;;;;4753692;30;20048;-74
2023/01/27 07:10:05;;;;;;;6.40;2.42;;;3.70;99.90;;;;;;4753656;30;20062;-74
2023/01/27 07:12:34;;;;;;;7.78;2.50;;;3.70;99.90;;;;;;4753587;30;20052;-74
2023/01/27 07:15:00;;;;;;;5.90;1.90;;;3.70;99.90;;;;;;4753654;30;20048;-74
2023/01/27 07:17:25;;;;;;;6.05;2.05;;;3.70;99.90;;;;;;4753472;30;20056;-74
2023/01/27 07:19:51;;;;;;;4.78;1.80;;;3.80;99.90;;;;;;4753626;30;20080;-74
2023/01/27 07:22:16;;;;;;;5.97;2.70;;;3.70;99.90;;;;;;4754592;30;20047;-74
2023/01/27 07:24:42;;;;;;;6.80;1.67;;;3.80;99.90;;;;;;4753551;30;20073;-74
2023/01/27 07:27:08;;;;;;;8.52;1.30;;;3.80;99.90;;;;;;4753235;30;20068;-74
2023/01/27 07:29:33;;;;;;;3.50;1.55;;;3.70;99.90;;;;;;4737670;30;20056;-74
2023/01/27 07:31:59;;;;;;;3.72;1.15;;;3.80;99.90;;;;;;4753685;30;20109;-74
2023/01/27 07:34:24;;;;;;;5.15;1.73;;;3.80;99.90;;;;;;4738370;30;20052;-74
2023/01/27 07:36:50;;;;;;;4.05;1.45;;;3.80;99.90;;;;;;4738544;30;20055;-74
2023/01/27 07:39:16;;;;;;;4.80;1.38;;;3.70;99.90;;;;;;4738207;30;20127;-74
2023/01/27 07:41:42;;;;;;;9.43;1.33;;;3.70;99.90;;;;;;4738458;30;20139;-74
2023/01/27 07:44:09;;;;;;;5.93;1.90;;;3.70;99.90;;;;;;4738302;30;20095;-74
2023/01/27 07:46:37;;;;;;;3.70;0.82;;;3.70;99.90;;;;;;4738205;30;20056;-74
2023/01/27 07:49:03;;;;;;;3.75;1.15;;;3.70;99.90;;;;;;4738220;30;20509;-74
2023/01/27 07:51:28;;;;;;;5.25;1.10;;;3.80;99.90;;;;;;4737950;30;20048;-74
2023/01/27 07:53:54;;;;;;;8.23;2.35;;;3.80;99.90;;;;;;4738032;30;20141;-74
2023/01/27 07:56:20;;;;;;;4.75;1.42;;;3.80;99.90;;;;;;4753932;30;20044;-74
2023/01/27 07:58:48;;;;;;;5.70;2.00;;;3.80;99.90;;;;;;4737866;30;20419;-74
2023/01/27 08:01:14;;;;;;;2.40;0.93;;;3.80;99.90;;;;;;4737842;30;20476;-73
2023/01/27 08:03:39;;;;;;;4.22;1.98;;;3.80;99.90;;;;;;4738064;30;20068;-74
2023/01/27 08:06:11;;;;;;;4.85;1.48;;;3.80;99.90;;;;;;4737826;30;20109;-75
2023/01/27 08:08:37;;;;;;;2.95;1.02;;;3.80;99.90;;;;;;4732279;30;20044;-74
2023/01/27 08:11:07;;;;;;;7.25;2.10;;;3.80;99.90;;;;;;4736057;30;20052;-74
2023/01/27 08:13:34;;;;;;;3.63;1.20;;;3.80;99.90;;;;;;4731178;30;20060;-73
2023/01/27 08:16:02;;;;;;;2.65;1.00;;;3.90;99.90;;;;;;4726793;30;20048;-73
2023/01/27 08:18:28;;;;;;;3.20;0.82;;;3.90;99.90;;;;;;4720230;30;20110;-73
2023/01/27 08:20:58;;;;;;;4.38;1.42;;;3.80;99.90;;;;;;4719980;30;20044;-73
2023/01/27 08:23:26;;;;;;;4.07;1.30;;;3.90;99.90;;;;;;4719928;30;20052;-73
2023/01/27 08:25:54;;;;;;;8.40;2.67;;;3.90;99.90;;;;;;4719815;30;20062;-73
2023/01/27 08:28:21;;;;;;;6.47;1.50;;;3.90;99.90;;;;;;4727957;30;20434;-74
2023/01/27 08:30:51;;;;;;;6.93;1.67;;;4.00;99.90;;;;;;4735292;30;20056;-73
2023/01/27 08:33:18;;;;;;;4.97;1.73;;;4.00;99.90;;;;;;4735501;30;20498;-74
2023/01/27 08:35:44;;;;;;;4.20;1.50;;;4.00;99.90;;;;;;4734205;30;20051;-74
2023/01/27 08:38:12;;;;;;;4.57;1.52;;;4.00;99.90;;;;;;4734176;30;20056;-73
2023/01/27 08:40:38;;;;;;;4.57;1.20;;;4.00;99.90;;;;;;4734128;30;20060;-74
2023/01/27 08:43:04;;;;;;;5.85;1.30;;;4.00;99.90;;;;;;4733959;30;20186;-74
2023/01/27 08:45:30;;;;;;;5.15;1.67;;;4.00;99.90;;;;;;4734349;30;20139;-74
2023/01/27 08:47:55;;;;;;;3.40;1.35;;;4.00;99.90;;;;;;4735420;30;20064;-74
2023/01/27 08:50:21;;;;;;;5.65;1.15;;;4.00;99.90;;;;;;4734254;30;20088;-74
2023/01/27 08:52:49;;;;;;;3.90;1.05;;;4.00;99.90;;;;;;4733666;30;20502;-74
2023/01/27 08:55:15;;;;;;;3.38;0.88;;;4.10;99.90;;;;;;4733970;30;20414;-74
2023/01/27 08:57:41;;;;;;;3.33;1.08;;;4.10;99.90;;;;;;4741193;30;20052;-74
2023/01/27 09:00:07;;;;;;;1.55;0.77;;;4.10;99.90;;;;;;4750936;30;20060;-74
2023/01/27 09:02:33;;;;;;;2.42;1.13;;;4.10;99.90;;;;;;4751326;30;20056;-74
2023/01/27 09:04:59;;;;;;;5.78;0.98;;;4.10;99.90;;;;;;4751670;30;20090;-74
2023/01/27 09:07:25;;;;;;;3.72;1.55;;;4.10;99.90;;;;;;4751315;30;20090;-74
2023/01/27 09:09:50;;;;;;;5.95;1.40;;;4.10;99.90;;;;;;4751379;30;20497;-74
2023/01/27 09:12:19;;;;;;;2.33;1.00;;;4.10;99.90;;;;;;4751240;30;20561;-74
2023/01/27 09:14:45;;;;;;;3.47;1.33;;;4.10;99.90;;;;;;4751341;30;20079;-74
2023/01/27 09:17:18;;;;;;;3.08;1.08;;;4.10;99.90;;;;;;4750508;30;20060;-74
2023/01/27 09:19:44;;;;;;;5.88;2.20;;;4.10;99.90;;;;;;4750778;30;20053;-74
2023/01/27 09:22:10;;;;;;;9.50;1.35;;;4.20;99.90;;;;;;4750124;30;20120;-74
2023/01/27 09:24:35;;;;;;;5.20;1.67;;;4.20;99.90;;;;;;4748417;30;20443;-73
2023/01/27 09:27:01;;;;;;;6.70;1.63;;;4.20;99.90;;;;;;4751114;30;20412;-74
2023/01/27 09:29:28;;;;;;;7.55;1.63;;;4.20;99.90;;;;;;4734701;30;20512;-74
2023/01/27 09:31:59;;;;;;;4.53;1.40;;;4.20;99.90;;;;;;4735159;30;20059;-74
2023/01/27 09:34:25;;;;;;;4.82;1.45;;;4.20;99.90;;;;;;4735357;30;20110;-74
2023/01/27 09:36:56;;;;;;;5.28;1.35;;;4.30;99.90;;;;;;4735066;30;20044;-74
2023/01/27 09:39:22;;;;;;;4.45;1.35;;;4.20;99.90;;;;;;4734938;30;20468;-74
2023/01/27 09:42:26;;;;;;;2.85;1.08;;;4.10;99.90;;;;;;4734650;30;20106;-74
2023/01/27 09:45:10;;;;;;;;;;;4.10;99.90;;;;;;4743832;30;20060;-73
2023/01/27 09:48:18;;;;;;;5.72;0.75;;;4.00;99.90;;;;;;4727994;30;19922;-73
2023/01/27 09:50:51;;;;;;;2.85;0.60;;;4.10;99.90;;;;;;4726254;30;20063;-74
2023/01/27 09:53:25;;;;;;;3.40;1.27;;;4.00;99.90;;;;;;4733939;30;20052;-74
2023/01/27 09:56:22;;;;;;;2.05;0.70;;;4.00;99.90;;;;;;4736189;30;20497;-73
2023/01/27 09:59:25;;;;;;;6.78;1.30;;;4.00;99.90;;;;;;4735842;30;20417;-73
2023/01/27 10:01:59;;;;;;;2.22;0.88;;;4.10;99.90;;;;;;4736052;30;20075;-73
2023/01/27 10:05:10;;;;;;;4.88;2.58;;;4.20;99.90;;;;;;4726593;30;20048;-73
2023/01/27 10:07:48;;;;;;;8.65;2.00;;;4.30;99.90;;;;;;4722422;30;20070;-74
2023/01/27 10:10:37;;;;;;;4.35;1.65;;;4.30;99.90;;;;;;4741360;30;20057;-74
2023/01/27 10:13:06;;;;;;;5.03;1.38;;;4.40;99.90;;;;;;4734715;30;20143;-74
2023/01/27 10:15:45;;;;;;;6.13;1.75;;;4.50;99.90;;;;;;4733752;30;20108;-74
2023/01/27 10:18:24;;;;;;;1.83;0.90;;;4.50;99.90;;;;;;4735850;30;20056;-73
2023/01/27 10:21:06;;;;;;;3.50;1.77;;;4.40;99.90;;;;;;4736002;30;20067;-74
2023/01/27 10:23:47;;;;;;;2.95;0.60;;;4.40;99.90;;;;;;4736068;30;20044;-74
2023/01/27 10:26:36;;;;;;;2.45;0.93;;;4.50;99.90;;;;;;4740876;30;20055;-73
2023/01/27 10:29:15;;;;;;;3.50;0.55;;;4.40;99.90;;;;;;4752165;30;20103;-74
2023/01/27 10:32:06;;;;;;;1.58;0.50;;;4.50;99.90;;;;;;4731405;30;20080;-74
2023/01/27 10:34:41;;;;;;;1.25;0.50;;;4.50;99.90;;;;;;4735055;30;20084;-74
2023/01/27 10:37:10;;;;;;;3.58;1.88;;;4.50;99.90;;;;;;4765855;30;20406;-74
2023/01/27 10:40:02;;;;;;;4.50;1.20;;;4.50;99.90;;;;;;4765420;30;20556;-74
2023/01/27 10:42:42;;;;;;;4.13;1.45;;;4.50;99.90;;;;;;4736209;30;20052;-74
2023/01/27 10:45:44;;;;;;;4.95;0.90;;;4.50;99.90;;;;;;4736270;30;20041;-72
2023/01/27 10:48:44;;;;;;;5.97;0.90;;;4.70;99.90;;;;;;4765714;30;20052;-73
2023/01/27 10:51:42;;;;;;;6.15;1.42;;;4.80;99.90;;;;;;4765588;30;20143;-73
2023/01/27 10:54:17;;;;;;;5.18;1.27;;;4.80;99.90;;;;;;4765515;30;20060;-74
2023/01/27 10:57:24;;;;;;;5.57;1.80;;;4.80;99.90;;;;;;4736037;30;20061;-73
2023/01/27 11:00:15;;;;;;;7.78;2.22;;;4.70;99.90;;;;;;4727813;30;20096;-74
2023/01/27 11:02:56;;;;;;;6.20;2.78;;;4.70;99.90;;;;;;4736090;30;20071;-74
2023/01/27 11:05:29;;;;;;;9.00;2.97;;;4.60;99.90;;;;;;4765550;30;20056;-73
2023/01/27 11:08:04;;;;;;;7.97;3.00;;;4.60;99.90;;;;;;4736018;30;20402;-73
2023/01/27 11:10:37;;;;;;;7.07;3.50;;;4.60;99.90;;;;;;4767676;24;20410;-74
2023/01/27 11:13:12;;;;;;;14.35;8.23;;;4.70;99.90;;;;;;4724804;24;20123;-73
2023/01/27 11:15:38;;;;;;;9.30;4.30;;;4.80;99.90;;;;;;4718183;30;20045;-74
2023/01/27 11:18:36;;;;;;;5.78;2.38;;;4.90;99.90;;;;;;4719017;30;20057;-74
2023/01/27 11:21:14;;;;;;;6.13;1.42;;;4.80;99.90;;;;;;4721189;30;20069;-74
2023/01/27 11:23:44;;;;;;;14.98;2.72;;;4.70;99.90;;;;;;4718054;30;20057;-74
2023/01/27 11:26:39;;;;;;;2.70;1.50;;;4.80;99.90;;;;;;4718180;30;20057;-74
2023/01/27 11:29:20;;;;;;;2.35;0.65;;;4.80;99.90;;;;;;4718202;30;20447;-74
2023/01/27 11:31:58;;;;;;;1.20;0.60;;;4.80;99.90;;;;;;4718003;30;20048;-73
2023/01/27 11:34:32;;;;;;;5.13;1.30;;;4.90;99.90;;;;;;4717948;30;20089;-73
2023/01/27 11:36:59;;;;;;;3.17;0.60;;;4.90;99.90;;;;;;4717934;30;20056;-73
2023/01/27 11:39:29;;;;;;;5.05;0.90;;;4.90;99.90;;;;;;4718130;30;20057;-74
2023/01/27 11:41:55;;;;;;;2.00;0.80;;;4.90;99.90;;;;;;4717827;30;20053;-73
2023/01/27 11:44:30;;;;;;;2.80;1.02;;;4.90;99.90;;;;;;4717626;30;20064;-74
2023/01/27 11:46:56;;;;;;;3.13;0.88;;;4.90;99.90;;;;;;4717098;30;20136;-74
2023/01/27 11:49:26;;;;;;;7.70;1.30;;;4.80;99.90;;;;;;4717589;30;20132;-74
2023/01/27 11:52:04;;;;;;;3.92;0.93;;;4.80;99.90;;;;;;4717746;30;20124;-74
2023/01/27 11:54:43;;;;;;;1.90;0.90;;;4.80;99.90;;;;;;4717801;30;20510;-72
2023/01/27 11:57:23;;;;;;;3.28;0.80;;;4.80;99.90;;;;;;4717542;30;20107;-74
2023/01/27 11:59:54;;;;;;;9.30;2.92;;;4.90;99.90;;;;;;4717407;30;20057;-73
2023/01/27 12:02:43;;;;;;;4.53;1.05;;;4.80;99.90;;;;;;4717349;30;20056;-73
2023/01/27 12:05:26;;;;;;;3.58;1.40;;;4.80;99.90;;;;;;4717643;30;20053;-73
2023/01/27 12:08:06;;;;;;;7.20;1.88;;;4.80;99.90;;;;;;4717661;30;20053;-74
2023/01/27 12:10:43;;;;;;;4.72;2.08;;;4.80;99.90;;;;;;4717328;30;20056;-73
2023/01/27 12:13:19;;;;;;;3.17;1.52;;;4.80;99.90;;;;;;4716919;30;20061;-74
2023/01/27 12:16:04;;;;;;;3.25;0.95;;;4.80;99.90;;;;;;4717261;30;20192;-73
2023/01/27 12:18:33;;;;;;;4.82;1.48;;;4.70;99.90;;;;;;4717223;30;20064;-71
2023/01/27 12:21:05;;;;;;;6.50;1.10;;;4.70;99.90;;;;;;4718280;30;20061;-73
2023/01/27 12:23:45;;;;;;;5.05;1.25;;;4.80;99.90;;;;;;4717126;30;20153;-74
2023/01/27 12:26:11;;;;;;;5.65;1.00;;;4.70;99.90;;;;;;4716986;30;20053;-74
2023/01/27 12:28:48;;;;;;;11.93;1.65;;;4.70;99.90;;;;;;4717127;30;20064;-74
2023/01/27 12:31:29;;;;;;;3.20;1.13;;;4.80;99.90;;;;;;4716920;30;20053;-73
2023/01/27 12:34:01;;;;;;;3.17;0.93;;;4.80;99.90;;;;;;4716889;30;20061;-74
2023/01/27 12:36:28;;;;;;;3.03;1.17;;;4.80;99.90;;;;;;4716882;30;20049;-74
2023/01/27 12:38:57;;;;;;;2.90;0.88;;;4.80;99.90;;;;;;4716847;30;20103;-74
2023/01/27 12:41:29;;;;;;;4.18;1.70;;;4.60;99.90;;;;;;4716993;30;20518;-74
2023/01/27 12:43:59;;;;;;;4.57;1.70;;;4.70;99.90;;;;;;4717887;30;20132;-75
2023/01/27 12:46:26;;;;;;;3.25;1.40;;;4.80;99.90;;;;;;4717951;30;20052;-73
2023/01/27 12:49:01;;;;;;;5.68;2.13;;;4.80;99.90;;;;;;4716858;30;20140;-77
2023/01/27 12:51:44;;;;;;;7.68;2.60;;;4.80;99.90;;;;;;4716510;30;20072;-77
2023/01/27 12:54:19;;;;;;;8.90;3.72;;;4.80;99.90;;;;;;4716810;30;20118;-76
2023/01/27 12:56:45;;;;;;;5.65;2.28;;;4.70;99.90;;;;;;4716079;30;20549;-77
2023/01/27 12:59:16;;;;;;;4.07;1.70;;;4.70;99.90;;;;;;4717692;30;20048;-77
2023/01/27 13:01:43;;;;;;;1.83;0.90;;;4.60;99.90;;;;;;4716497;30;20052;-77
2023/01/27 13:04:25;;;;;;;4.13;1.38;;;4.50;99.90;;;;;;4716435;30;20140;-78
2023/01/27 13:06:54;;;;;;;4.97;1.30;;;4.60;99.90;;;;;;4716303;30;20483;-77
2023/01/27 13:09:26;;;;;;;3.00;0.70;;;4.50;99.90;;;;;;4717764;30;20061;-78
2023/01/27 13:11:53;;;;;;;3.97;0.63;;;4.60;99.90;;;;;;4716216;30;20064;-77
2023/01/27 13:14:19;;;;;;;3.35;1.13;;;4.40;99.90;;;;;;4716574;30;20060;-77
2023/01/27 13:16:57;;;;;;;4.05;1.30;;;4.50;99.90;;;;;;4716311;30;20057;-77
2023/01/27 13:19:36;;;;;;;7.05;2.65;;;4.50;99.90;;;;;;4716320;30;20080;-77
2023/01/27 13:22:03;;;;;;;4.88;1.10;;;4.60;99.90;;;;;;4716357;30;20132;-79
2023/01/27 13:24:37;;;;;;;5.47;1.60;;;4.50;99.90;;;;;;4716160;30;20546;-78
2023/01/27 13:27:09;;;;;;;3.58;1.00;;;4.50;99.90;;;;;;4716547;30;20160;-77
2023/01/27 13:29:35;;;;;;;9.07;1.07;;;4.50;99.90;;;;;;4716249;30;20059;-76
2023/01/27 13:32:22;;;;;;;3.15;0.75;;;4.50;99.90;;;;;;4715995;30;20441;-77
2023/01/27 13:35:07;;;;;;;3.72;1.70;;;4.40;99.90;;;;;;4716459;30;20140;-78
2023/01/27 13:38:00;;;;;;;4.20;1.10;;;4.50;99.90;;;;;;4716149;30;20132;-76
2023/01/27 13:40:26;;;;;;;;;;;4.50;99.90;;;;;;4716439;30;20490;-76
2023/01/27 13:43:19;;;;;;;3.42;0.70;;;4.50;99.90;;;;;;4715973;30;19922;-75
2023/01/27 13:46:03;;;;;;;3.03;0.63;;;4.40;99.90;;;;;;4716122;30;20065;-74
2023/01/27 13:48:36;;;;;;;2.78;1.10;;;4.40;99.90;;;;;;4728657;30;20063;-74
2023/01/27 13:51:15;;;;;;;3.80;1.30;;;4.40;99.90;;;;;;4732086;30;20068;-73